This is the latest recevied weather packets stored in our database for station/object SV1JCZ-13. If no packets are shown the sender has not sent any weather packets the latest 10 day(s).
| Time | Temp. | Humidity | Pressure | Rain* | Wind** | Luminosity | Snow |
|---|---|---|---|---|---|---|---|
| 1778259074 | 18.89° C | 68% | 0 hPa | 0.51 mm | - | - | - |
| 1778258718 | 18.89° C | 68% | 0 hPa | 0.51 mm | - | - | - |
| 1778258358 | 19.44° C | 66% | 0 hPa | 0.51 mm | - | - | - |
| 1778257998 | 20° C | 62% | 0 hPa | 0.25 mm | - | - | - |
| 1778257638 | 20.56° C | 60% | 0 hPa | 0 mm | - | - | - |
| 1778257278 | 21.11° C | 57% | 0 hPa | 0 mm | - | - | - |
| 1778256918 | 21.67° C | 58% | 0 hPa | 0 mm | - | - | - |
| 1778256558 | 21.67° C | 57% | 0 hPa | 0 mm | - | - | - |
| 1778256198 | 21.67° C | 58% | 0 hPa | 0 mm | - | - | - |
| 1778255838 | 21.67° C | 57% | 0 hPa | 0 mm | - | - | - |
| 1778255478 | 21.67° C | 58% | 0 hPa | 0 mm | - | - | - |
| 1778255416 | 21.67° C | 59% | 0 hPa | 0 mm | - | - | - |
| 1778255118 | 21.11° C | 60% | 0 hPa | 0 mm | - | - | - |
| 1778254758 | 20.56° C | 61% | 0 hPa | 0 mm | - | - | - |
| 1778254398 | 20.56° C | 61% | 0 hPa | 0 mm | - | - | - |
| 1778254159 | 20.56° C | 60% | 0 hPa | 0 mm | - | - | - |
| 1778254038 | 20.56° C | 59% | 0 hPa | 0 mm | - | - | - |
| 1778253678 | 21.11° C | 57% | 0 hPa | 0 mm | - | - | - |
| 1778253318 | 21.67° C | 54% | 0 hPa | 0 mm | - | - | - |
| 1778252958 | 22.22° C | 54% | 0 hPa | 0 mm | - | - | - |
| 1778252598 | 22.22° C | 54% | 0 hPa | 0 mm | - | - | - |
| 1778252238 | 22.22° C | 54% | 0 hPa | 0 mm | - | - | - |
| 1778251878 | 21.67° C | 56% | 0 hPa | 0 mm | - | - | - |
| 1778251759 | 21.67° C | 57% | 0 hPa | 0 mm | - | - | - |
| 1778251518 | 21.11° C | 58% | 0 hPa | 0.51 mm | - | - | - |
* Rain latest hour (hover to see other rain measurements)
** Current wind speed in m/s (hover to see current wind gust speed)